Time;durP1;ratioP1;P1;durP2;ratioP2;P2;SDS_P1;SDS_P2;PMS_P1;PMS_P2;Temp;Humidity;BMP_temperature;BMP_pressure;BME280_temperature;BME280_humidity;BME280_pressure;Samples;Min_cycle;Max_cycle;Signal;HPM_P1;HPM_P2
2022/12/12 00:00:16;;;;;;;3.30;3.10;;;;;;;5.29;73.11;93621.56;5017605;28;20226;-69
2022/12/12 00:02:43;;;;;;;3.20;3.00;;;;;;;5.27;72.73;93629.34;5017487;28;20198;-69
2022/12/12 00:05:15;;;;;;;2.97;2.78;;;;;;;5.34;71.88;93626.78;5017903;28;20206;-69
2022/12/12 00:07:43;;;;;;;2.90;2.60;;;;;;;5.37;71.98;93633.47;5017788;28;20209;-69
2022/12/12 00:10:11;;;;;;;2.30;2.20;;;;;;;5.36;71.75;93638.16;5017302;28;20210;-68
2022/12/12 00:12:37;;;;;;;2.20;2.10;;;;;;;5.44;71.02;93644.56;5017653;28;20618;-68
2022/12/12 00:15:05;;;;;;;2.13;2.03;;;;;;;5.42;71.18;93642.19;5017522;28;20198;-68
2022/12/12 00:17:33;;;;;;;2.08;1.98;;;;;;;5.39;71.64;93629.22;5034992;28;20256;-68
2022/12/12 00:20:00;;;;;;;2.08;1.98;;;;;;;5.32;71.14;93638.06;5033906;28;20214;-69
2022/12/12 00:22:26;;;;;;;2.10;2.00;;;;;;;5.34;71.21;93650.56;5017896;28;20198;-69
2022/12/12 00:24:55;;;;;;;2.65;2.45;;;;;;;5.30;72.00;93648.56;5017642;28;20252;-68
2022/12/12 00:27:21;;;;;;;2.38;2.28;;;;;;;5.32;71.59;93656.41;5017088;28;20210;-69
2022/12/12 00:29:52;;;;;;;2.85;2.65;;;;;;;5.30;71.81;93640.38;5013779;28;20234;-69
2022/12/12 00:32:19;;;;;;;2.40;2.28;;;;;;;5.33;70.57;93641.59;5014115;28;20199;-69
2022/12/12 00:34:45;;;;;;;2.40;2.30;;;;;;;5.35;70.15;93638.50;5014183;28;20203;-69
2022/12/12 00:37:12;;;;;;;2.22;2.13;;;;;;;5.35;70.07;93638.50;5015014;28;20242;-68
2022/12/12 00:39:40;;;;;;;2.20;2.10;;;;;;;5.32;70.56;93640.78;5014281;28;20206;-68
2022/12/12 00:42:08;;;;;;;2.20;2.10;;;;;;;5.27;70.38;93632.88;5014032;28;20192;-68
2022/12/12 00:44:35;;;;;;;2.30;2.20;;;;;;;5.22;70.24;93624.91;5014784;28;20191;-68
2022/12/12 00:47:02;;;;;;;2.25;2.15;;;;;;;5.19;70.67;93638.50;5014414;28;20195;-68
2022/12/12 00:49:29;;;;;;;2.70;2.50;;;;;;;5.16;70.25;93642.75;5014169;28;20203;-68
2022/12/12 00:51:56;;;;;;;2.00;1.90;;;;;;;5.15;70.82;93654.81;5013714;28;20203;-69
2022/12/12 00:54:23;;;;;;;2.25;2.15;;;;;;;5.15;71.15;93651.28;5013869;28;20199;-68
2022/12/12 00:56:50;;;;;;;2.40;2.30;;;;;;;5.11;71.96;93655.88;5015183;28;20187;-68
2022/12/12 00:59:19;;;;;;;2.53;2.42;;;;;;;5.09;72.06;93658.19;5018401;28;20187;-68
2022/12/12 01:01:46;;;;;;;2.55;2.35;;;;;;;5.11;71.58;93670.34;5018368;28;20304;-69
2022/12/12 01:04:13;;;;;;;2.20;2.10;;;;;;;5.10;71.91;93679.69;5018199;28;20203;-69
2022/12/12 01:06:41;;;;;;;2.50;2.40;;;;;;;5.04;72.38;93673.69;5018258;28;20211;-69
2022/12/12 01:09:09;;;;;;;3.30;3.10;;;;;;;5.04;72.52;93672.88;5018419;28;20350;-68
2022/12/12 01:11:36;;;;;;;3.45;3.25;;;;;;;5.00;72.43;93672.78;5017202;28;20207;-69
2022/12/12 01:14:02;;;;;;;3.40;3.20;;;;;;;4.97;72.65;93670.75;5017177;28;20211;-69
2022/12/12 01:16:31;;;;;;;3.20;3.00;;;;;;;4.99;72.16;93675.91;5018105;28;20203;-69
2022/12/12 01:18:58;;;;;;;3.38;3.17;;;;;;;4.97;71.89;93668.03;5017989;28;20191;-69
2022/12/12 01:21:25;;;;;;;3.60;3.30;;;;;;;4.98;72.24;93666.91;5017652;28;20281;-69
2022/12/12 01:23:52;;;;;;;3.67;3.47;;;;;;;4.98;72.83;93674.31;5016590;28;20207;-68
2022/12/12 01:26:21;;;;;;;4.07;3.78;;;;;;;5.00;72.58;93685.66;5017587;28;20195;-68
2022/12/12 01:28:48;;;;;;;3.83;3.63;;;;;;;4.98;73.29;93682.50;5024133;28;20241;-68
2022/12/12 01:31:15;;;;;;;3.72;3.42;;;;;;;4.95;74.04;93686.72;5020156;28;20198;-68
2022/12/12 01:33:44;;;;;;;3.83;3.53;;;;;;;4.94;74.11;93682.41;5037494;28;20183;-68
2022/12/12 01:36:15;;;;;;;3.97;3.72;;;;;;;4.99;74.12;93686.81;5036234;28;20285;-68
2022/12/12 01:38:43;;;;;;;5.20;4.90;;;;;;;5.00;73.82;93678.25;5037480;28;20205;-68
2022/12/12 01:41:09;;;;;;;5.45;5.05;;;;;;;5.04;73.31;93687.34;5020057;28;20218;-69
2022/12/12 01:43:36;;;;;;;6.03;5.63;;;;;;;5.07;72.94;93702.25;5037423;28;20191;-69
2022/12/12 01:46:37;;;;;;;6.18;5.68;;;;;;;5.06;73.66;93703.41;5019923;28;20217;-69
2022/12/12 01:49:11;;;;;;;5.88;5.35;;;;;;;5.06;73.56;93704.19;5036581;28;20204;-69
2022/12/12 01:51:39;;;;;;;5.82;5.32;;;;;;;5.01;73.31;93695.44;5019976;28;20197;-69
2022/12/12 01:54:08;;;;;;;6.00;5.50;;;;;;;4.97;73.34;93698.09;5019747;28;20202;-69
2022/12/12 01:56:36;;;;;;;5.55;5.15;;;;;;;4.97;72.96;93703.56;5020281;28;20203;-69
2022/12/12 01:59:05;;;;;;;5.35;4.95;;;;;;;4.95;73.61;93705.84;5019716;28;20634;-69
2022/12/12 02:01:32;;;;;;;6.35;5.85;;;;;;;4.93;73.47;93699.16;5036679;28;20206;-69
2022/12/12 02:04:00;;;;;;;6.95;6.35;;;;;;;4.90;73.67;93705.31;5019527;28;20210;-69
2022/12/12 02:06:29;;;;;;;6.40;5.90;;;;;;;4.82;73.62;93707.84;5037003;28;20248;-68
2022/12/12 02:08:59;;;;;;;6.68;6.18;;;;;;;4.74;73.77;93717.00;5036171;28;20183;-68
2022/12/12 02:11:27;;;;;;;6.88;6.30;;;;;;;4.69;73.96;93724.66;5019357;28;20195;-68
2022/12/12 02:13:54;;;;;;;6.53;6.03;;;;;;;4.65;74.06;93719.09;5019435;28;20240;-68
2022/12/12 02:16:32;;;;;;;6.85;6.35;;;;;;;4.60;74.40;93719.34;5036852;28;20638;-68
2022/12/12 02:19:04;;;;;;;7.22;6.72;;;;;;;4.53;74.14;93713.69;5036456;28;20186;-68
2022/12/12 02:21:37;;;;;;;7.82;7.22;;;;;;;4.47;74.33;93715.09;5036550;28;20271;-68
2022/12/12 02:24:29;;;;;;;7.45;6.85;;;;;;;4.39;74.38;93705.09;5019190;28;20187;-68
2022/12/12 02:27:31;;;;;;;9.82;9.00;;;;;;;4.35;74.49;93715.91;5019472;28;20214;-69
2022/12/12 02:30:15;;;;;;;9.73;8.82;;;;;;;4.30;74.55;93724.34;5015230;28;20709;-69
2022/12/12 02:33:07;;;;;;;16.85;15.55;;;;;;;4.26;74.18;93718.78;5016831;28;20183;-69
2022/12/12 02:35:41;;;;;;;11.68;10.77;;;;;;;4.20;74.20;93714.69;5024588;28;20239;-68
2022/12/12 02:38:15;;;;;;;11.07;10.18;;;;;;;4.17;74.02;93718.13;5016609;28;20186;-68
2022/12/12 02:40:45;;;;;;;10.65;9.73;;;;;;;4.10;74.18;93712.44;5016164;28;20203;-68
2022/12/12 02:43:14;;;;;;;8.23;7.55;;;;;;;4.06;74.30;93715.06;5016693;28;20191;-68
2022/12/12 02:45:44;;;;;;;7.90;7.30;;;;;;;4.03;74.70;93717.69;5015637;28;20202;-69
2022/12/12 02:48:16;;;;;;;7.35;6.75;;;;;;;4.01;74.43;93719.97;5015517;28;20604;-68
2022/12/12 02:50:44;;;;;;;7.30;6.80;;;;;;;4.00;74.48;93705.56;5015759;28;20211;-68
2022/12/12 02:53:11;;;;;;;7.68;7.00;;;;;;;3.96;73.95;93703.84;5015772;28;20199;-68
2022/12/12 02:55:38;;;;;;;8.18;7.53;;;;;;;3.94;73.91;93711.59;5016288;28;20253;-69
2022/12/12 02:58:06;;;;;;;8.40;7.70;;;;;;;3.94;74.09;93708.84;5016223;28;20588;-69
2022/12/12 03:00:39;;;;;;;8.48;7.78;;;;;;;3.91;73.38;93702.16;5016079;28;20635;-69
2022/12/12 03:09:07;;;;;;;9.55;8.65;;;;;;;3.89;73.92;93709.09;5015833;28;20180;-69
2022/12/12 03:11:42;;;;;;;10.30;9.40;;;;;;;3.85;73.62;93712.50;5015312;28;20187;-69
2022/12/12 03:14:12;;;;;;;11.25;10.25;;;;;;;3.86;73.94;93718.75;5015682;28;20726;-69
2022/12/12 03:16:45;;;;;;;12.40;11.25;;;;;;;3.80;73.61;93714.66;5015151;28;20199;-69
2022/12/12 03:19:20;;;;;;;11.20;10.27;;;;;;;3.80;73.92;93722.84;5014907;28;20187;-69
2022/12/12 03:21:49;;;;;;;10.57;9.65;;;;;;;3.82;74.06;93717.84;5014599;28;20295;-69
2022/12/12 03:24:21;;;;;;;10.25;9.45;;;;;;;3.82;73.93;93709.69;5014929;28;20222;-69
2022/12/12 03:26:52;;;;;;;10.20;9.30;;;;;;;3.82;73.89;93709.69;5014862;28;20199;-69
2022/12/12 03:29:22;;;;;;;9.00;8.30;;;;;;;3.81;74.09;93716.25;5014730;28;20246;-69
2022/12/12 03:31:51;;;;;;;8.75;8.05;;;;;;;3.79;73.75;93727.50;5014795;28;20238;-69
2022/12/12 03:34:24;;;;;;;8.15;7.45;;;;;;;3.82;73.32;93735.00;5031633;28;20714;-69
2022/12/12 03:36:52;;;;;;;7.40;6.90;;;;;;;3.85;73.32;93728.09;5014379;28;20642;-69
2022/12/12 03:39:23;;;;;;;6.57;6.07;;;;;;;3.84;73.63;93727.28;5015587;28;20226;-69
2022/12/12 03:41:54;;;;;;;7.18;6.68;;;;;;;3.85;73.53;93739.78;5015447;28;20207;-69
2022/12/12 03:44:23;;;;;;;8.60;7.90;;;;;;;3.83;73.45;93738.53;5015495;28;20230;-69
2022/12/12 03:46:53;;;;;;;7.50;6.90;;;;;;;3.81;74.19;93741.63;5015666;28;20183;-69
2022/12/12 03:49:25;;;;;;;8.70;8.10;;;;;;;3.78;74.02;93742.28;5014789;28;20269;-69
2022/12/12 03:51:56;;;;;;;9.95;9.15;;;;;;;3.74;74.53;93746.84;5014384;28;20203;-69
2022/12/12 03:54:26;;;;;;;9.52;8.82;;;;;;;3.64;74.44;93758.22;5015234;28;20191;-69
2022/12/12 03:56:57;;;;;;;8.65;8.05;;;;;;;3.61;75.06;93756.94;5015387;28;20258;-69
2022/12/12 03:59:27;;;;;;;12.98;11.90;;;;;;;3.59;74.66;93750.22;5015396;28;20187;-69
2022/12/12 04:01:59;;;;;;;11.73;10.70;;;;;;;3.55;74.67;93750.13;5014396;28;20211;-69
2022/12/12 04:04:29;;;;;;;12.30;11.30;;;;;;;3.54;74.42;93756.72;5015410;28;20191;-69
2022/12/12 04:06:59;;;;;;;11.73;10.82;;;;;;;3.52;75.33;93763.63;5014494;28;20187;-69
2022/12/12 04:15:27;;;;;;;10.80;10.00;;;;;;;3.43;76.10;93758.31;5015399;28;20253;-70
2022/12/12 04:18:01;;;;;;;11.00;10.10;;;;;;;3.46;75.84;93760.34;5015101;28;20206;-70
2022/12/12 04:23:30;;;;;;;10.48;9.68;;;;;;;3.48;75.56;93784.53;5014966;28;20184;-70
2022/12/12 04:28:53;;;;;;;10.95;10.05;;;;;;;3.54;76.21;93783.19;5013612;28;20230;-70
2022/12/12 04:31:23;;;;;;;12.52;11.52;;;;;;;3.51;76.36;93787.38;5015066;28;20249;-70
2022/12/12 04:33:51;;;;;;;10.68;9.82;;;;;;;3.56;76.20;93791.84;5017419;28;20202;-71
2022/12/12 04:36:21;;;;;;;10.88;10.07;;;;;;;3.57;76.16;93794.22;5017883;28;20616;-71
2022/12/12 04:38:50;;;;;;;10.90;10.10;;;;;;;3.50;75.49;93785.81;5018366;28;20202;-71
2022/12/12 04:41:18;;;;;;;11.85;10.90;;;;;;;3.41;76.09;93771.47;5018099;28;20223;-71
2022/12/12 04:43:47;;;;;;;12.88;11.88;;;;;;;3.43;76.08;93777.38;5017837;28;20202;-71
2022/12/12 04:46:16;;;;;;;12.23;11.25;;;;;;;3.48;76.16;93774.44;5017410;28;20207;-71
2022/12/12 04:48:47;;;;;;;12.32;11.35;;;;;;;3.49;76.27;93773.31;5017698;28;20202;-71
2022/12/12 04:51:16;;;;;;;12.95;11.95;;;;;;;3.55;77.04;93782.84;5017927;28;20191;-71
2022/12/12 04:53:47;;;;;;;12.43;11.52;;;;;;;3.59;77.29;93780.22;5017790;28;20191;-71
2022/12/12 04:56:17;;;;;;;12.43;11.52;;;;;;;3.60;77.45;93779.91;5017445;28;20201;-71
2022/12/12 04:58:43;;;;;;;13.23;12.23;;;;;;;3.68;77.05;93777.41;5034037;28;20565;-71
2022/12/12 05:01:14;;;;;;;14.30;13.10;;;;;;;3.73;76.77;93786.16;5017345;28;20218;-71
2022/12/12 05:03:47;;;;;;;14.35;13.25;;;;;;;3.69;77.20;93773.53;5017099;28;20205;-71
2022/12/12 05:06:16;;;;;;;14.07;12.98;;;;;;;3.65;77.20;93781.59;5017035;28;20591;-70
2022/12/12 05:08:46;;;;;;;13.80;12.70;;;;;;;3.61;77.78;93786.16;5017451;28;20199;-71
2022/12/12 05:11:14;;;;;;;14.25;13.15;;;;;;;3.59;78.16;93791.13;5017481;28;20187;-71
2022/12/12 05:13:43;;;;;;;14.38;13.25;;;;;;;3.58;78.03;93787.63;5017024;28;20211;-72
2022/12/12 05:16:18;;;;;;;13.25;12.25;;;;;;;3.67;78.32;93781.25;5016822;28;20203;-71
2022/12/12 05:18:44;;;;;;;13.80;12.70;;;;;;;3.69;78.13;93782.50;5017389;28;20257;-71
2022/12/12 05:21:11;;;;;;;14.18;13.07;;;;;;;3.69;78.12;93781.72;5017020;28;20233;-71
2022/12/12 05:23:38;;;;;;;14.68;13.38;;;;;;;3.72;77.71;93795.47;5016846;28;20217;-71
2022/12/12 05:26:10;;;;;;;13.38;12.27;;;;;;;3.71;77.59;93785.72;5017866;28;20191;-71
2022/12/12 05:28:37;;;;;;;13.20;12.20;;;;;;;3.73;77.94;93801.72;5016659;28;20238;-71
2022/12/12 05:31:04;;;;;;;14.20;13.10;;;;;;;3.76;77.33;93798.31;5017068;28;20203;-71
2022/12/12 05:33:32;;;;;;;13.13;12.07;;;;;;;3.80;77.26;93799.22;5017850;28;20195;-71
2022/12/12 05:35:59;;;;;;;12.07;11.07;;;;;;;3.84;77.14;93794.66;5016570;28;20209;-71
2022/12/12 05:38:25;;;;;;;13.63;12.63;;;;;;;3.83;76.89;93795.81;5017435;28;20206;-71
2022/12/12 05:40:52;;;;;;;15.90;14.52;;;;;;;3.82;76.86;93797.75;5017131;28;20199;-71
2022/12/12 05:43:20;;;;;;;17.50;16.20;;;;;;;3.71;76.85;93795.81;5015699;28;20202;-71
2022/12/12 05:45:47;;;;;;;21.98;19.92;;;;;;;3.65;76.96;93789.00;5016150;28;20212;-71
2022/12/12 05:48:13;;;;;;;26.35;23.80;;;;;;;3.61;77.36;93791.59;5016310;28;20199;-71
2022/12/12 05:50:41;;;;;;;20.60;18.70;;;;;;;3.65;77.56;93806.16;5016744;28;20213;-71
2022/12/12 05:53:08;;;;;;;23.02;20.90;;;;;;;3.68;77.75;93812.84;5016547;28;20210;-71
2022/12/12 05:55:35;;;;;;;18.25;16.75;;;;;;;3.74;77.86;93814.22;5017162;28;20203;-71
2022/12/12 05:58:02;;;;;;;18.23;16.63;;;;;;;3.80;77.77;93815.59;5016999;28;20194;-70
2022/12/12 06:00:30;;;;;;;18.35;16.65;;;;;;;3.80;77.57;93816.38;5017581;28;20313;-71
2022/12/12 06:02:57;;;;;;;19.33;17.52;;;;;;;3.82;77.71;93811.38;5017267;28;20218;-70
2022/12/12 06:05:24;;;;;;;18.85;17.15;;;;;;;3.82;77.77;93814.13;5032871;28;20535;-71
2022/12/12 06:07:51;;;;;;;18.88;17.15;;;;;;;3.81;77.86;93814.44;5016040;28;20203;-71
2022/12/12 06:10:19;;;;;;;19.85;18.05;;;;;;;3.83;77.56;93812.19;5016153;28;20207;-71
2022/12/12 06:12:46;;;;;;;19.65;17.95;;;;;;;3.84;78.33;93817.28;5016141;28;20194;-70
2022/12/12 06:15:12;;;;;;;19.48;17.73;;;;;;;3.83;78.10;93823.88;5016986;28;20611;-71
2022/12/12 06:17:43;;;;;;;19.45;17.75;;;;;;;3.81;78.17;93830.81;5017087;28;20253;-71
2022/12/12 06:20:11;;;;;;;20.88;19.08;;;;;;;3.79;78.36;93836.59;5015991;28;20191;-71
2022/12/12 06:22:38;;;;;;;22.75;20.70;;;;;;;3.81;78.20;93837.06;5016726;28;20229;-71
2022/12/12 06:25:06;;;;;;;21.48;19.67;;;;;;;3.84;77.72;93844.56;5016562;28;20209;-70
2022/12/12 06:27:33;;;;;;;17.23;15.75;;;;;;;3.83;77.30;93853.88;5032367;28;20241;-70
2022/12/12 06:30:00;;;;;;;16.20;14.90;;;;;;;3.83;77.53;93853.88;5015597;28;20230;-71
2022/12/12 06:32:27;;;;;;;15.80;14.57;;;;;;;3.80;77.07;93854.56;5016590;28;20195;-71
2022/12/12 06:34:55;;;;;;;15.10;13.95;;;;;;;3.80;77.24;93861.94;5016250;28;20703;-71
2022/12/12 06:37:22;;;;;;;15.93;14.63;;;;;;;3.81;77.14;93858.06;5032382;28;20203;-71
2022/12/12 06:39:49;;;;;;;16.48;15.18;;;;;;;3.86;77.03;93868.78;5015475;28;20265;-71
2022/12/12 06:42:16;;;;;;;17.55;16.15;;;;;;;3.88;76.59;93869.22;5015491;28;20222;-71
2022/12/12 06:44:43;;;;;;;17.80;16.30;;;;;;;3.88;76.47;93862.97;5015973;28;20214;-71
2022/12/12 06:47:10;;;;;;;18.70;17.10;;;;;;;3.85;76.72;93870.72;5016096;28;20541;-71
2022/12/12 06:49:37;;;;;;;18.27;16.77;;;;;;;3.84;76.54;93863.66;5016496;28;20187;-71
2022/12/12 06:52:05;;;;;;;18.65;17.13;;;;;;;3.89;76.64;93859.94;5015370;28;20234;-71
2022/12/12 06:54:32;;;;;;;18.10;16.60;;;;;;;3.90;76.68;93858.78;5015821;28;20209;-71
2022/12/12 06:56:59;;;;;;;19.08;17.58;;;;;;;3.91;76.63;93870.47;5031881;28;20199;-71
2022/12/12 06:59:27;;;;;;;19.38;17.88;;;;;;;3.87;76.46;93873.09;5016315;28;20241;-71
2022/12/12 07:01:55;;;;;;;18.30;16.80;;;;;;;3.91;76.95;93876.72;5015708;28;20214;-71
2022/12/12 07:04:21;;;;;;;18.33;16.92;;;;;;;3.96;76.85;93879.25;5015260;28;20277;-71
2022/12/12 07:06:49;;;;;;;17.73;16.33;;;;;;;3.98;76.65;93884.34;5015550;28;20203;-71
2022/12/12 07:09:18;;;;;;;19.77;18.17;;;;;;;4.00;76.73;93887.56;5015373;28;20230;-71
2022/12/12 07:11:45;;;;;;;19.08;17.38;;;;;;;3.99;76.65;93881.28;5016104;28;20183;-71
2022/12/12 07:14:12;;;;;;;19.50;17.90;;;;;;;4.03;76.67;93889.56;5014879;28;20203;-70
2022/12/12 07:16:39;;;;;;;16.73;15.43;;;;;;;4.07;76.64;93887.78;5015392;28;20233;-71
2022/12/12 07:19:06;;;;;;;15.48;14.18;;;;;;;4.11;76.51;93891.44;5015026;28;20205;-70
2022/12/12 07:21:34;;;;;;;15.52;14.23;;;;;;;4.10;76.22;93898.81;5014820;28;20234;-71
2022/12/12 07:24:00;;;;;;;15.43;14.23;;;;;;;4.09;75.52;93899.16;4998643;28;20678;-70
2022/12/12 07:26:29;;;;;;;15.68;14.38;;;;;;;4.12;75.17;93903.13;5016277;28;20195;-70
2022/12/12 07:28:55;;;;;;;16.25;14.85;;;;;;;4.06;75.33;93906.06;5014948;28;20581;-70
2022/12/12 07:31:24;;;;;;;15.25;13.95;;;;;;;4.06;75.71;93908.00;5015124;28;20209;-71
2022/12/12 07:33:51;;;;;;;15.70;14.40;;;;;;;4.09;75.46;93924.50;5015649;28;20199;-70
2022/12/12 07:36:19;;;;;;;16.38;14.98;;;;;;;4.16;75.97;93929.41;5030837;28;20199;-71
2022/12/12 07:38:46;;;;;;;18.10;16.42;;;;;;;4.19;75.95;93931.44;5030815;28;20203;-70
2022/12/12 07:41:14;;;;;;;16.63;15.05;;;;;;;4.23;75.61;93940.53;5014886;28;20191;-71
2022/12/12 07:43:44;;;;;;;15.45;13.95;;;;;;;4.25;75.22;93946.47;5015527;28;20233;-71
2022/12/12 07:46:14;;;;;;;14.80;13.48;;;;;;;4.32;75.56;93951.34;5015446;28;20202;-70
2022/12/12 07:48:41;;;;;;;14.75;13.55;;;;;;;4.38;75.14;93960.13;5015206;28;20249;-71
2022/12/12 07:51:08;;;;;;;13.98;12.85;;;;;;;4.46;75.32;93949.06;5015630;28;20191;-70
2022/12/12 07:53:35;;;;;;;13.48;12.23;;;;;;;4.50;74.77;93947.28;5015501;28;20191;-70
2022/12/12 07:56:05;;;;;;;14.07;12.77;;;;;;;4.56;75.01;93943.16;5014158;28;20202;-70
2022/12/12 07:58:32;;;;;;;13.93;12.73;;;;;;;4.62;75.23;93945.69;5015455;28;20190;-70
2022/12/12 08:01:00;;;;;;;13.55;12.32;;;;;;;4.71;75.18;93958.06;5015501;28;20195;-71
2022/12/12 08:03:27;;;;;;;12.90;11.77;;;;;;;4.80;75.15;93956.00;5015180;28;20235;-70
2022/12/12 08:05:53;;;;;;;11.18;10.27;;;;;;;4.90;74.15;93965.69;5015328;28;20241;-71
2022/12/12 08:08:20;;;;;;;9.68;8.95;;;;;;;4.99;72.94;93971.00;5017758;28;20203;-70
2022/12/12 08:10:47;;;;;;;10.57;9.77;;;;;;;5.12;73.05;93980.78;5018598;28;20203;-71
2022/12/12 08:13:13;;;;;;;12.30;11.20;;;;;;;5.15;72.05;93971.09;5018184;28;20195;-71
2022/12/12 08:15:42;;;;;;;12.52;11.43;;;;;;;5.22;72.51;93966.63;5018544;28;20269;-70
2022/12/12 08:18:11;;;;;;;12.02;11.02;;;;;;;5.35;72.69;93972.06;5019126;28;20203;-70
2022/12/12 08:20:39;;;;;;;11.88;10.88;;;;;;;5.44;72.13;93978.19;5018699;28;20608;-71
2022/12/12 08:23:06;;;;;;;12.43;11.25;;;;;;;5.47;72.24;93975.56;5019047;28;20509;-71
2022/12/12 08:25:35;;;;;;;14.43;13.23;;;;;;;5.46;72.58;93984.13;5019323;28;20187;-71
2022/12/12 08:28:01;;;;;;;14.95;13.70;;;;;;;5.50;72.68;93988.53;5034650;28;20198;-71
2022/12/12 08:30:28;;;;;;;15.13;13.93;;;;;;;5.61;72.57;93988.84;5018119;28;20234;-71
2022/12/12 08:32:55;;;;;;;15.10;13.82;;;;;;;5.64;72.65;93992.84;5019002;28;20199;-70
2022/12/12 08:35:24;;;;;;;16.02;14.63;;;;;;;5.62;71.75;93982.22;5017817;28;20207;-70
2022/12/12 08:37:51;;;;;;;15.15;13.85;;;;;;;5.60;71.63;93983.75;5018803;28;20191;-70
2022/12/12 08:40:18;;;;;;;13.40;12.30;;;;;;;5.62;71.93;93992.38;5017929;28;20203;-71
2022/12/12 08:42:44;;;;;;;12.52;11.43;;;;;;;5.62;72.17;93982.22;5018716;28;20207;-70
2022/12/12 08:45:12;;;;;;;12.77;11.75;;;;;;;5.62;71.44;93979.50;5018912;28;20191;-70
2022/12/12 08:47:39;;;;;;;12.48;11.35;;;;;;;5.52;71.02;93978.06;5018774;28;20206;-71
2022/12/12 08:50:06;;;;;;;13.57;12.48;;;;;;;5.53;71.83;93979.66;5017670;28;20214;-71
2022/12/12 08:52:35;;;;;;;14.00;12.88;;;;;;;5.54;71.42;93980.44;5017975;28;20555;-71
2022/12/12 08:55:01;;;;;;;14.32;13.02;;;;;;;5.51;71.63;93979.19;5018776;28;20195;-71
2022/12/12 08:57:28;;;;;;;16.13;14.65;;;;;;;5.54;71.79;93981.22;5018277;28;20183;-71
2022/12/12 08:59:55;;;;;;;18.08;16.38;;;;;;;5.58;72.60;93977.81;5018401;28;20195;-71
2022/12/12 09:02:22;;;;;;;16.65;15.25;;;;;;;5.59;72.32;93973.91;5018345;28;20265;-71
2022/12/12 09:04:50;;;;;;;16.38;14.88;;;;;;;5.61;72.43;93972.44;5017418;28;20265;-70
2022/12/12 09:07:17;;;;;;;15.63;14.23;;;;;;;5.63;72.53;93964.69;5034191;28;20210;-70
2022/12/12 09:09:45;;;;;;;17.20;15.52;;;;;;;5.67;72.22;93962.84;5018244;28;20191;-70
2022/12/12 09:12:12;;;;;;;17.10;15.50;;;;;;;5.71;72.09;93968.41;5018315;28;20249;-71
2022/12/12 09:14:38;;;;;;;16.75;15.25;;;;;;;5.75;71.89;93969.31;5018026;28;20206;-71
2022/12/12 09:17:05;;;;;;;17.25;15.65;;;;;;;5.77;72.02;93961.53;5017586;28;20195;-71
2022/12/12 09:19:32;;;;;;;17.05;15.55;;;;;;;5.77;71.93;93970.56;5018288;28;20201;-71
2022/12/12 09:21:58;;;;;;;17.90;16.23;;;;;;;5.84;71.83;93969.94;5017978;28;20199;-71
2022/12/12 09:24:25;;;;;;;17.15;15.75;;;;;;;5.83;71.83;93970.28;5017377;28;20210;-71
2022/12/12 09:26:55;;;;;;;16.92;15.43;;;;;;;5.83;72.01;93970.28;5018015;28;20198;-71
2022/12/12 09:29:21;;;;;;;17.58;16.08;;;;;;;5.86;72.57;93953.97;5028144;28;20249;-71
2022/12/12 09:31:48;;;;;;;18.30;16.65;;;;;;;5.88;72.45;93950.88;5037785;28;20198;-71
2022/12/12 09:34:15;;;;;;;17.88;16.27;;;;;;;5.88;72.77;93946.22;5037591;28;20194;-71
2022/12/12 09:36:42;;;;;;;18.88;17.02;;;;;;;5.88;72.73;93943.47;5020511;28;20202;-71
2022/12/12 09:39:09;;;;;;;19.05;17.30;;;;;;;5.87;72.49;93941.88;5020327;28;20543;-71
2022/12/12 09:41:36;;;;;;;16.95;15.52;;;;;;;5.91;72.83;93941.97;5037510;28;20187;-71
2022/12/12 09:44:07;;;;;;;17.50;15.80;;;;;;;5.95;72.45;93940.94;5037018;28;20210;-70
2022/12/12 09:46:40;;;;;;;17.10;15.50;;;;;;;5.98;72.60;93937.50;5037779;28;20190;-71
2022/12/12 09:49:15;;;;;;;17.40;15.90;;;;;;;5.98;72.32;93940.25;5020565;28;20249;-71
2022/12/12 09:51:44;;;;;;;17.42;15.93;;;;;;;6.05;72.44;93945.09;5037174;28;20213;-71
2022/12/12 09:54:15;;;;;;;16.73;15.32;;;;;;;6.08;72.17;93941.69;5037423;28;20189;-71
2022/12/12 09:57:07;;;;;;;19.45;17.65;;;;;;;6.12;72.27;93934.34;5020244;28;20528;-71
2022/12/12 09:59:40;;;;;;;17.70;16.10;;;;;;;6.20;72.85;93940.78;5013695;28;20324;-71
2022/12/12 10:02:21;;;;;;;18.95;17.25;;;;;;;6.21;72.16;93928.72;5036879;28;20213;-71
2022/12/12 10:04:54;;;;;;;19.60;17.77;;;;;;;6.24;71.85;93931.50;5037175;28;20186;-71
2022/12/12 10:07:25;;;;;;;27.20;24.52;;;;;;;6.24;71.75;93928.78;5020074;28;20599;-71
2022/12/12 10:09:58;;;;;;;25.77;23.38;;;;;;;6.26;71.80;93921.00;5037004;28;20205;-71
2022/12/12 10:12:26;;;;;;;34.25;30.98;;;;;;;6.34;71.45;93929.41;5037219;28;20190;-71
2022/12/12 10:14:56;;;;;;;38.70;34.92;;;;;;;6.29;71.39;93921.47;5036878;28;20264;-71
2022/12/12 10:17:30;;;;;;;54.53;49.50;;;;;;;6.26;71.94;93921.00;5019634;28;20202;-71
2022/12/12 10:20:00;;;;;;;71.65;64.95;;;;;;;6.31;72.34;93921.91;5036837;28;20178;-71
2022/12/12 10:22:34;;;;;;;60.40;55.03;;;;;;;6.35;72.31;93922.78;5019688;28;20217;-71
2022/12/12 10:25:08;;;;;;;61.38;55.90;;;;;;;6.38;72.41;93909.16;5036465;28;20599;-71
2022/12/12 10:27:35;;;;;;;64.28;58.22;;;;;;;6.40;72.14;93906.09;5036537;28;20245;-71
2022/12/12 10:30:13;;;;;;;52.63;47.97;;;;;;;6.54;72.63;93889.22;5035559;28;20552;-71
2022/12/12 10:32:49;;;;;;;42.15;38.17;;;;;;;6.66;72.16;93889.88;5019400;28;20229;-71
2022/12/12 10:35:22;;;;;;;38.20;34.60;;;;;;;6.71;70.65;93891.53;5019288;28;20201;-71
2022/12/12 10:37:58;;;;;;;28.33;25.70;;;;;;;6.77;70.83;93879.16;5019057;28;20206;-71
2022/12/12 10:40:34;;;;;;;21.05;18.90;;;;;;;6.83;70.28;93866.78;5036453;28;20197;-71
2022/12/12 10:43:03;;;;;;;16.23;14.73;;;;;;;6.85;69.99;93869.94;5036198;28;20206;-71
2022/12/12 10:45:52;;;;;;;14.30;13.10;;;;;;;6.93;69.68;93871.66;5018784;28;20190;-71
2022/12/12 10:48:19;;;;;;;13.98;12.77;;;;;;;7.03;69.01;93880.50;5018796;28;20187;-71
2022/12/12 10:50:49;;;;;;;15.55;14.05;;;;;;;7.06;68.96;93882.53;5035739;28;20187;-71
2022/12/12 10:53:15;;;;;;;15.07;13.77;;;;;;;7.09;68.72;93882.59;5019095;28;20260;-71
2022/12/12 10:55:47;;;;;;;14.65;13.35;;;;;;;7.02;68.01;93874.22;5018667;28;20194;-71
2022/12/12 10:58:15;;;;;;;14.65;13.35;;;;;;;6.97;68.60;93869.81;5035975;28;20210;-71
2022/12/12 11:00:45;;;;;;;17.67;16.17;;;;;;;6.94;68.72;93886.19;5018908;28;20211;-71
2022/12/12 11:03:21;;;;;;;18.23;16.52;;;;;;;6.92;69.28;93880.25;5035734;28;20301;-71
2022/12/12 11:05:48;;;;;;;20.05;17.90;;;;;;;6.92;69.17;93881.06;5018523;28;20209;-71
2022/12/12 11:08:21;;;;;;;20.33;18.42;;;;;;;6.94;69.82;93878.75;5018398;28;20256;-71
2022/12/12 11:11:02;;;;;;;21.52;19.45;;;;;;;7.01;70.13;93886.34;5018527;28;20222;-71
2022/12/12 11:13:29;;;;;;;25.88;23.58;;;;;;;7.08;70.41;93880.19;5035437;28;20190;-71
2022/12/12 11:16:00;;;;;;;29.42;26.58;;;;;;;7.12;70.51;93887.38;5035735;28;20213;-71
2022/12/12 11:18:28;;;;;;;30.23;27.42;;;;;;;7.08;70.08;93885.69;5018240;28;20203;-70
2022/12/12 11:21:03;;;;;;;33.30;30.08;;;;;;;7.06;70.51;93886.06;5018140;28;20266;-70
2022/12/12 11:23:30;;;;;;;34.90;31.77;;;;;;;7.03;70.52;93870.31;5018012;28;20218;-71
2022/12/12 11:25:58;;;;;;;37.53;33.80;;;;;;;6.98;70.89;93873.34;5034411;28;20603;-71
2022/12/12 11:28:30;;;;;;;37.13;33.85;;;;;;;6.97;70.83;93858.84;5018325;28;20231;-71
2022/12/12 11:31:02;;;;;;;40.92;36.95;;;;;;;6.96;70.70;93867.44;5017777;28;20618;-71
2022/12/12 11:33:32;;;;;;;41.17;37.33;;;;;;;6.91;71.10;93874.00;5017806;28;20202;-71
2022/12/12 11:36:00;;;;;;;40.55;36.63;;;;;;;6.83;70.99;93865.97;5017927;28;20202;-71
2022/12/12 11:38:29;;;;;;;39.15;35.55;;;;;;;6.79;71.35;93865.91;5018415;28;20206;-71
2022/12/12 11:40:58;;;;;;;39.45;35.83;;;;;;;6.76;71.12;93874.84;5018107;28;20202;-71
2022/12/12 11:43:26;;;;;;;39.45;35.47;;;;;;;6.81;72.03;93862.78;5017328;28;20284;-70
2022/12/12 11:46:03;;;;;;;39.00;35.28;;;;;;;6.83;72.16;93861.28;5035278;28;20195;-71
2022/12/12 11:48:37;;;;;;;39.13;34.50;;;;;;;6.89;71.99;93864.53;5017992;28;20248;-71
2022/12/12 11:51:04;;;;;;;36.08;32.58;;;;;;;6.90;71.91;93852.41;5017813;28;20248;-71
2022/12/12 11:53:34;;;;;;;35.40;31.80;;;;;;;6.89;71.74;93848.88;5035258;28;20182;-71
2022/12/12 11:56:18;;;;;;;38.33;34.72;;;;;;;6.88;71.63;93850.03;5017697;28;20209;-70